createdAt,value
2022-09-07T00:01:43.787Z,11.38
2022-09-07T00:04:11.430Z,11.40
2022-09-07T00:06:39.307Z,11.29
2022-09-07T00:09:06.835Z,11.16
2022-09-07T00:11:35.502Z,11.16
2022-09-07T00:14:03.278Z,11.32
2022-09-07T00:16:31.025Z,11.35
2022-09-07T00:18:59.374Z,11.45
2022-09-07T00:21:27.003Z,11.36
2022-09-07T00:23:54.600Z,11.31
2022-09-07T00:26:23.534Z,11.39
2022-09-07T00:28:51.233Z,11.21
2022-09-07T00:31:19.822Z,11.35
2022-09-07T00:33:49.236Z,11.33
2022-09-07T00:36:17.262Z,11.29
2022-09-07T00:38:45.519Z,11.25
2022-09-07T00:41:13.153Z,11.21
2022-09-07T00:43:47.744Z,11.08
2022-09-07T00:46:22.471Z,11.11
2022-09-07T00:48:59.417Z,11.21
2022-09-07T00:51:31.919Z,11.19
2022-09-07T00:54:11.139Z,11.00
2022-09-07T00:56:40.125Z,11.12
2022-09-07T00:59:07.953Z,11.21
2022-09-07T01:01:36.375Z,11.25
2022-09-07T01:04:03.992Z,11.39
2022-09-07T01:06:33.930Z,11.43
2022-09-07T01:09:05.959Z,11.35
2022-09-07T01:11:34.862Z,11.06
2022-09-07T01:14:03.077Z,11.08
2022-09-07T01:16:33.999Z,11.22
2022-09-07T01:19:20.137Z,10.92
2022-09-07T01:22:06.443Z,10.86
2022-09-07T01:24:36.915Z,10.88
2022-09-07T01:27:07.331Z,11.03
2022-09-07T01:29:41.273Z,10.94
2022-09-07T01:32:19.492Z,10.79
2022-09-07T01:34:47.819Z,10.90
2022-09-07T01:37:41.694Z,10.78
2022-09-07T01:40:11.974Z,10.79
2022-09-07T01:42:45.418Z,10.63
2022-09-07T01:45:13.243Z,10.69
2022-09-07T01:47:46.355Z,10.99
2022-09-07T01:50:24.886Z,10.68
2022-09-07T01:52:52.393Z,10.76
2022-09-07T01:55:24.766Z,10.58
2022-09-07T01:58:06.607Z,10.56
2022-09-07T02:00:34.264Z,10.59
2022-09-07T02:03:07.786Z,10.41
2022-09-07T02:05:51.161Z,10.44
2022-09-07T02:08:29.021Z,10.53
2022-09-07T02:11:00.697Z,10.53
2022-09-07T02:13:36.004Z,10.48
2022-09-07T02:16:06.945Z,10.44
2022-09-07T02:18:36.563Z,10.27
2022-09-07T02:21:04.140Z,10.40
2022-09-07T02:23:34.063Z,10.25
2022-09-07T02:26:03.422Z,10.39
2022-09-07T02:28:32.805Z,10.28
2022-09-07T02:31:00.559Z,10.27
2022-09-07T02:33:28.195Z,10.09
2022-09-07T02:35:55.726Z,10.07
2022-09-07T02:38:23.185Z,10.23
2022-09-07T02:40:51.892Z,10.09
2022-09-07T02:43:19.437Z,10.05
2022-09-07T02:45:55.716Z,10.06
2022-09-07T02:48:28.108Z,10.02
2022-09-07T02:51:04.480Z,9.93
2022-09-07T02:53:36.292Z,9.89
2022-09-07T02:56:07.485Z,10.05
2022-09-07T02:58:40.756Z,9.99
2022-09-07T03:01:26.802Z,10.00
2022-09-07T03:04:03.551Z,10.08
2022-09-07T03:06:49.734Z,10.12
2022-09-07T03:09:19.811Z,10.09
2022-09-07T03:11:47.661Z,10.08
2022-09-07T03:14:19.145Z,10.01
2022-09-07T03:16:47.170Z,9.96
2022-09-07T03:19:14.750Z,10.07
2022-09-07T03:21:42.465Z,10.01
2022-09-07T03:24:09.956Z,9.95
2022-09-07T03:26:39.287Z,10.05
2022-09-07T03:29:06.950Z,9.95
2022-09-07T03:31:35.999Z,9.94
2022-09-07T03:34:03.682Z,9.84
2022-09-07T03:36:31.252Z,9.81
2022-09-07T03:38:59.506Z,9.92
2022-09-07T03:41:27.264Z,9.96
2022-09-07T03:43:54.734Z,10.01
2022-09-07T03:46:22.515Z,10.16
2022-09-07T03:48:50.517Z,9.99
2022-09-07T03:51:18.209Z,9.90
2022-09-07T03:53:46.250Z,10.07
2022-09-07T03:56:14.846Z,10.20
2022-09-07T03:58:42.728Z,10.27
2022-09-07T04:01:11.645Z,10.29
2022-09-07T04:03:39.756Z,10.25
2022-09-07T04:06:07.351Z,10.47
2022-09-07T04:08:35.579Z,10.54
2022-09-07T04:11:03.932Z,10.69
2022-09-07T04:13:32.050Z,10.53
2022-09-07T04:15:59.859Z,10.55
2022-09-07T04:18:27.371Z,10.76
2022-09-07T04:20:58.382Z,10.94
2022-09-07T04:23:25.898Z,10.96
2022-09-07T04:25:53.519Z,10.99
2022-09-07T04:28:21.063Z,11.13
2022-09-07T04:30:48.663Z,11.23
2022-09-07T04:33:16.380Z,11.35
2022-09-07T04:35:44.029Z,11.34
2022-09-07T04:38:15.257Z,11.63
2022-09-07T04:40:43.031Z,11.87
2022-09-07T04:43:13.259Z,11.70
2022-09-07T04:45:40.999Z,11.82
2022-09-07T04:48:08.460Z,11.76
2022-09-07T04:50:36.335Z,11.89
2022-09-07T04:53:04.020Z,12.22
2022-09-07T04:55:31.882Z,12.18
2022-09-07T04:57:59.477Z,12.14
2022-09-07T05:00:27.392Z,12.35
2022-09-07T05:02:55.117Z,12.45
2022-09-07T05:05:22.658Z,12.48
2022-09-07T05:07:50.548Z,12.55
2022-09-07T05:10:18.477Z,12.30
2022-09-07T05:12:47.302Z,12.31
2022-09-07T05:15:15.890Z,11.95
2022-09-07T05:17:43.542Z,12.45
2022-09-07T05:20:11.099Z,12.71
2022-09-07T05:22:41.288Z,13.09
2022-09-07T05:25:08.965Z,12.88
2022-09-07T05:27:36.646Z,12.82
2022-09-07T05:30:05.184Z,13.02
2022-09-07T05:32:33.902Z,13.13
2022-09-07T05:35:01.553Z,13.24
2022-09-07T05:37:29.118Z,13.28
2022-09-07T05:39:57.209Z,13.34
2022-09-07T05:42:24.839Z,13.32
2022-09-07T05:44:53.275Z,13.26
2022-09-07T05:47:20.851Z,13.44
2022-09-07T05:49:48.598Z,13.71
2022-09-07T05:52:16.134Z,13.98
2022-09-07T05:54:43.752Z,13.61
2022-09-07T05:57:11.768Z,13.54
2022-09-07T05:59:39.480Z,13.35
2022-09-07T06:02:07.464Z,13.66
2022-09-07T06:04:35.360Z,13.84
2022-09-07T06:07:21.159Z,13.82
2022-09-07T06:12:37.983Z,13.95
2022-09-07T06:15:06.093Z,14.19
2022-09-07T06:17:34.144Z,14.28
2022-09-07T06:20:01.731Z,14.52
2022-09-07T06:22:31.236Z,14.69
2022-09-07T06:24:59.200Z,14.81
2022-09-07T06:27:26.965Z,14.96
2022-09-07T06:29:54.716Z,14.75
2022-09-07T06:35:10.380Z,14.98
2022-09-07T06:37:38.650Z,14.94
2022-09-07T06:40:06.601Z,15.15
2022-09-07T06:42:34.419Z,14.94
2022-09-07T06:45:03.670Z,15.07
2022-09-07T06:47:31.696Z,15.14
2022-09-07T06:50:01.804Z,15.38
2022-09-07T06:52:30.150Z,15.37
2022-09-07T06:55:17.672Z,15.06
2022-09-07T06:57:45.527Z,15.27
2022-09-07T07:00:13.414Z,15.40
2022-09-07T07:02:40.982Z,15.43
2022-09-07T07:05:08.664Z,15.05
2022-09-07T07:07:36.288Z,15.67
2022-09-07T07:10:03.999Z,15.57
2022-09-07T07:14:59.208Z,15.55
2022-09-07T07:17:27.593Z,15.75
2022-09-07T07:19:55.414Z,15.36
2022-09-07T07:22:46.063Z,16.95
2022-09-07T07:25:10.439Z,20.48
2022-09-07T07:27:38.188Z,23.30
2022-09-07T07:30:06.474Z,24.88
2022-09-07T07:32:35.195Z,26.19
2022-09-07T07:35:02.731Z,25.32
2022-09-07T07:37:32.413Z,26.85
2022-09-07T07:40:17.577Z,26.51
2022-09-07T07:42:47.637Z,29.57
2022-09-07T07:48:02.928Z,29.15
2022-09-07T07:50:31.437Z,27.10
2022-09-07T07:55:47.913Z,27.96
2022-09-07T07:58:15.641Z,28.26
2022-09-07T08:00:54.146Z,28.67
2022-09-07T08:03:22.797Z,29.38
2022-09-07T08:05:50.471Z,29.60
2022-09-07T08:08:18.126Z,29.08
2022-09-07T08:10:47.373Z,29.06
2022-09-07T08:13:15.402Z,28.12
2022-09-07T08:15:45.543Z,28.21
2022-09-07T08:18:13.427Z,29.08
2022-09-07T08:20:42.591Z,30.13
2022-09-07T08:23:13.510Z,31.38
2022-09-07T08:25:52.744Z,30.82
2022-09-07T08:28:21.769Z,27.07
2022-09-07T08:30:49.268Z,25.39
2022-09-07T08:33:16.848Z,24.24
2022-09-07T08:36:00.443Z,23.90
2022-09-07T08:38:31.030Z,25.91
2022-09-07T08:40:59.162Z,27.07
2022-09-07T08:43:49.003Z,27.38
2022-09-07T08:46:28.498Z,27.96
2022-09-07T08:48:59.839Z,27.73
2022-09-07T08:51:37.481Z,29.87
2022-09-07T08:54:05.239Z,28.18
2022-09-07T08:56:38.210Z,28.99
2022-09-07T08:59:22.851Z,27.27
2022-09-07T09:05:16.171Z,25.00
2022-09-07T09:07:45.361Z,25.33
2022-09-07T09:10:16.486Z,25.79
2022-09-07T09:13:23.297Z,26.04
2022-09-07T09:16:09.632Z,25.74
2022-09-07T09:18:50.655Z,25.38
2022-09-07T09:21:18.883Z,24.71
2022-09-07T09:23:50.192Z,23.85
2022-09-07T09:26:22.776Z,21.81
2022-09-07T09:28:50.703Z,22.22
2022-09-07T09:31:19.516Z,21.45
2022-09-07T09:34:05.741Z,20.90
2022-09-07T09:36:34.551Z,21.47
2022-09-07T09:39:03.338Z,21.53
2022-09-07T09:41:38.190Z,22.23
2022-09-07T09:44:06.290Z,21.77
2022-09-07T09:46:34.587Z,21.67
2022-09-07T09:49:04.017Z,21.48
2022-09-07T09:54:21.745Z,20.98
2022-09-07T09:56:49.802Z,20.96
2022-09-07T10:05:26.513Z,22.23
2022-09-07T10:07:54.106Z,22.49
2022-09-07T10:10:21.683Z,22.77
2022-09-07T10:12:51.795Z,22.55
2022-09-07T10:15:40.584Z,22.23
2022-09-07T10:18:15.934Z,21.78
2022-09-07T10:20:44.035Z,21.54
2022-09-07T10:26:42.134Z,20.63
2022-09-07T10:29:14.606Z,19.79
2022-09-07T10:31:47.007Z,19.58
2022-09-07T10:34:26.748Z,20.41
2022-09-07T10:36:57.399Z,20.64
2022-09-07T10:39:45.362Z,21.61
2022-09-07T10:42:22.515Z,21.10
2022-09-07T10:44:56.445Z,20.89
2022-09-07T10:47:29.854Z,20.59
2022-09-07T10:52:50.582Z,20.05
2022-09-07T10:55:20.755Z,19.88
2022-09-07T10:58:00.559Z,19.73
2022-09-07T11:00:29.933Z,19.36
2022-09-07T11:06:01.971Z,19.78
2022-09-07T11:12:03.638Z,19.79
2022-09-07T11:14:58.019Z,19.50
2022-09-07T11:17:26.432Z,19.52
2022-09-07T11:19:54.899Z,19.80
2022-09-07T11:22:33.504Z,19.84
2022-09-07T11:27:54.821Z,19.90
2022-09-07T11:30:23.330Z,19.87
2022-09-07T11:33:09.589Z,19.90
2022-09-07T11:35:39.885Z,20.31
2022-09-07T11:38:30.507Z,20.13
2022-09-07T11:41:06.963Z,20.19
2022-09-07T11:43:38.469Z,20.43
2022-09-07T11:46:08.261Z,20.91
2022-09-07T11:48:36.409Z,20.90
2022-09-07T11:51:06.225Z,21.16
2022-09-07T11:53:34.909Z,20.82
2022-09-07T11:56:05.679Z,20.05
2022-09-07T11:58:36.468Z,19.87
2022-09-07T12:01:16.584Z,18.91
2022-09-07T12:03:44.331Z,18.68
2022-09-07T12:06:33.645Z,18.87
2022-09-07T12:09:20.276Z,19.91
2022-09-07T12:11:47.722Z,20.80
2022-09-07T12:14:23.612Z,21.21
2022-09-07T12:17:09.800Z,21.12
2022-09-07T12:19:37.523Z,21.33
2022-09-07T12:22:05.554Z,21.09
2022-09-07T12:27:01.383Z,20.40
2022-09-07T12:29:29.179Z,20.41
2022-09-07T12:31:58.601Z,20.74
2022-09-07T12:34:30.009Z,21.00
2022-09-07T12:37:01.067Z,20.79
2022-09-07T12:39:33.091Z,21.13
2022-09-07T12:45:14.851Z,21.01
2022-09-07T12:47:42.214Z,21.44
2022-09-07T12:50:21.338Z,20.45
2022-09-07T12:52:50.028Z,20.83
2022-09-07T12:55:28.562Z,20.98
2022-09-07T12:58:06.286Z,21.10
2022-09-07T13:00:44.407Z,20.95
2022-09-07T13:07:01.711Z,20.71
2022-09-07T13:09:22.368Z,19.97
2022-09-07T13:11:49.925Z,20.39
2022-09-07T13:14:19.511Z,20.70
2022-09-07T13:19:46.909Z,20.75
2022-09-07T13:22:29.736Z,20.58
2022-09-07T13:24:59.680Z,20.64
2022-09-07T13:27:29.169Z,20.36
2022-09-07T13:29:56.724Z,20.39
2022-09-07T13:35:26.831Z,19.98
2022-09-07T13:38:03.458Z,20.05
2022-09-07T13:40:32.326Z,20.22
2022-09-07T13:42:59.895Z,20.46
2022-09-07T13:45:33.568Z,20.24
2022-09-07T13:48:01.697Z,20.25
2022-09-07T13:50:42.746Z,20.15
2022-09-07T13:53:16.315Z,20.33
2022-09-07T13:55:46.630Z,20.10
2022-09-07T13:58:18.129Z,19.81
2022-09-07T14:00:50.309Z,20.06
2022-09-07T14:03:17.949Z,20.23
2022-09-07T14:05:46.200Z,20.13
2022-09-07T14:08:24.521Z,20.18
2022-09-07T14:10:52.175Z,19.73
2022-09-07T14:13:19.825Z,19.29
2022-09-07T14:15:50.267Z,19.64
2022-09-07T14:18:19.851Z,19.79
2022-09-07T14:20:48.398Z,19.81
2022-09-07T14:23:30.391Z,19.87
2022-09-07T14:26:20.195Z,19.85
2022-09-07T14:28:48.520Z,19.41
2022-09-07T14:31:16.694Z,19.38
2022-09-07T14:33:54.329Z,19.53
2022-09-07T14:36:43.573Z,19.05
2022-09-07T14:39:10.954Z,18.89
2022-09-07T14:41:40.112Z,19.14
2022-09-07T14:44:09.104Z,19.32
2022-09-07T14:46:37.074Z,19.44
2022-09-07T14:49:18.161Z,19.27
2022-09-07T14:51:48.338Z,19.06
2022-09-07T14:54:18.205Z,19.03
2022-09-07T14:56:49.263Z,18.80
2022-09-07T14:59:36.820Z,18.74
2022-09-07T15:02:20.082Z,18.79
2022-09-07T15:04:48.769Z,18.91
2022-09-07T15:07:34.969Z,18.91
2022-09-07T15:10:21.014Z,18.84
2022-09-07T15:12:55.287Z,18.98
2022-09-07T15:15:26.337Z,18.76
2022-09-07T15:17:55.076Z,18.80
2022-09-07T15:20:37.969Z,18.79
2022-09-07T15:23:06.563Z,19.00
2022-09-07T15:25:34.701Z,18.70
2022-09-07T15:28:02.476Z,18.54
2022-09-07T15:30:30.841Z,18.57
2022-09-07T15:33:00.046Z,18.58
2022-09-07T15:35:27.611Z,18.40
2022-09-07T15:38:04.750Z,18.41
2022-09-07T15:40:56.393Z,18.27
2022-09-07T15:43:28.557Z,18.20
2022-09-07T15:45:56.445Z,18.24
2022-09-07T15:48:27.290Z,18.06
2022-09-07T15:51:00.923Z,18.07
2022-09-07T15:56:16.394Z,17.95
2022-09-07T15:58:44.353Z,17.81
2022-09-07T16:03:59.785Z,17.84
2022-09-07T16:06:27.424Z,17.94
2022-09-07T16:08:55.135Z,17.66
2022-09-07T16:11:26.408Z,17.46
2022-09-07T16:14:02.168Z,17.55
2022-09-07T16:19:21.029Z,17.53
2022-09-07T16:21:57.630Z,17.27
2022-09-07T16:24:28.179Z,17.28
2022-09-07T16:26:57.154Z,17.35
2022-09-07T16:29:25.286Z,17.24
2022-09-07T16:34:41.392Z,17.04
2022-09-07T16:37:08.894Z,17.13
2022-09-07T16:39:37.537Z,17.00
2022-09-07T16:42:05.173Z,16.91
2022-09-07T16:44:35.242Z,16.79
2022-09-07T16:47:04.533Z,16.70
2022-09-07T16:49:32.305Z,16.38
2022-09-07T16:52:00.292Z,16.22
2022-09-07T16:54:28.105Z,16.24
2022-09-07T16:56:55.645Z,16.33
2022-09-07T16:59:26.810Z,16.24
2022-09-07T17:01:54.306Z,16.10
2022-09-07T17:04:22.213Z,15.96
2022-09-07T17:06:52.700Z,15.88
2022-09-07T17:09:26.430Z,16.00
2022-09-07T17:11:54.047Z,16.17
2022-09-07T17:14:21.644Z,16.02
2022-09-07T17:16:50.430Z,16.17
2022-09-07T17:19:33.478Z,16.16
2022-09-07T17:22:02.787Z,16.23
2022-09-07T17:24:32.252Z,16.05
2022-09-07T17:27:00.598Z,15.78
2022-09-07T17:29:30.618Z,15.82
2022-09-07T17:34:47.323Z,15.46
2022-09-07T17:37:14.999Z,15.41
2022-09-07T17:39:42.661Z,15.27
2022-09-07T17:42:10.399Z,14.93
2022-09-07T17:44:38.535Z,15.00
2022-09-07T17:47:06.948Z,14.75
2022-09-07T17:49:35.726Z,14.63
2022-09-07T17:52:03.290Z,14.56
2022-09-07T17:54:31.230Z,14.49
2022-09-07T17:56:58.917Z,14.43
2022-09-07T18:02:14.674Z,14.25
2022-09-07T18:04:43.162Z,14.25
2022-09-07T18:07:10.938Z,14.28
2022-09-07T18:09:39.792Z,14.13
2022-09-07T18:12:07.452Z,14.15
2022-09-07T18:14:35.449Z,14.17
2022-09-07T18:17:12.205Z,14.08
2022-09-07T18:19:40.153Z,14.07
2022-09-07T18:22:08.829Z,14.05
2022-09-07T18:24:36.828Z,13.95
2022-09-07T18:27:04.941Z,13.90
2022-09-07T18:29:34.433Z,13.84
2022-09-07T18:32:03.421Z,13.77
2022-09-07T18:34:31.765Z,13.73
2022-09-07T18:37:00.055Z,13.72
2022-09-07T18:39:27.705Z,13.67
2022-09-07T18:41:55.325Z,13.60
2022-09-07T18:47:23.370Z,13.54
2022-09-07T18:49:55.494Z,13.56
2022-09-07T18:55:10.618Z,13.50
2022-09-07T18:57:38.667Z,13.41
2022-09-07T19:00:09.316Z,13.43
2022-09-07T19:02:37.921Z,13.42
2022-09-07T19:07:53.689Z,13.34
2022-09-07T19:10:21.292Z,13.32
2022-09-07T19:12:50.474Z,13.36
2022-09-07T19:15:18.147Z,13.37
2022-09-07T19:17:46.181Z,13.24
2022-09-07T19:20:13.880Z,13.17
2022-09-07T19:22:43.062Z,13.16
2022-09-07T19:25:10.693Z,13.17
2022-09-07T19:27:38.169Z,13.15
2022-09-07T19:30:06.006Z,13.00
2022-09-07T19:32:33.888Z,13.04
2022-09-07T19:35:01.365Z,13.12
2022-09-07T19:37:32.013Z,13.14
2022-09-07T19:39:59.778Z,13.14
2022-09-07T19:42:27.761Z,13.09
2022-09-07T19:44:55.188Z,13.01
2022-09-07T19:47:23.447Z,12.99
2022-09-07T19:49:52.352Z,12.91
2022-09-07T19:52:20.959Z,12.85
2022-09-07T19:54:49.862Z,12.85
2022-09-07T19:57:17.332Z,12.75
2022-09-07T19:59:45.826Z,12.75
2022-09-07T20:02:13.554Z,12.72
2022-09-07T20:04:40.981Z,12.69
2022-09-07T20:07:08.368Z,12.71
2022-09-07T20:09:37.957Z,12.65
2022-09-07T20:12:07.814Z,12.65
2022-09-07T20:14:35.957Z,12.67
2022-09-07T20:17:03.831Z,12.60
2022-09-07T20:19:31.379Z,12.60
2022-09-07T20:21:58.900Z,12.66
2022-09-07T20:24:26.717Z,12.63
2022-09-07T20:26:54.156Z,12.59
2022-09-07T20:29:29.342Z,12.54
2022-09-07T20:31:58.234Z,12.55
2022-09-07T20:34:27.272Z,12.56
2022-09-07T20:36:54.792Z,12.70
2022-09-07T20:39:22.272Z,12.60
2022-09-07T20:41:49.816Z,12.51
2022-09-07T20:44:17.331Z,12.62
2022-09-07T20:46:45.105Z,12.52
2022-09-07T20:49:13.016Z,12.50
2022-09-07T20:51:40.431Z,12.55
2022-09-07T20:54:08.108Z,12.63
2022-09-07T20:56:35.871Z,12.58
2022-09-07T20:59:03.763Z,12.58
2022-09-07T21:01:31.453Z,12.59
2022-09-07T21:03:59.305Z,12.54
2022-09-07T21:06:27.622Z,12.93
2022-09-07T21:08:56.204Z,12.77
2022-09-07T21:11:24.772Z,12.50
2022-09-07T21:13:59.875Z,12.45
2022-09-07T21:16:29.832Z,12.57
2022-09-07T21:18:58.218Z,12.52
2022-09-07T21:21:26.720Z,12.52
2022-09-07T21:23:58.079Z,12.38
2022-09-07T21:26:26.040Z,12.51
2022-09-07T21:29:03.537Z,12.77
2022-09-07T21:31:31.745Z,12.90
2022-09-07T21:33:59.892Z,12.78
2022-09-07T21:36:27.465Z,13.17
2022-09-07T21:38:54.922Z,13.05
2022-09-07T21:41:23.085Z,13.49
2022-09-07T21:43:54.309Z,13.49
2022-09-07T21:46:21.815Z,13.58
2022-09-07T21:48:49.449Z,13.80
2022-09-07T21:51:17.065Z,13.86
2022-09-07T21:53:45.269Z,13.88
2022-09-07T21:56:13.289Z,14.01
2022-09-07T21:58:40.965Z,13.88
2022-09-07T22:01:10.768Z,13.52
2022-09-07T22:03:38.989Z,13.35
2022-09-07T22:06:06.939Z,12.90
2022-09-07T22:08:34.882Z,12.90
2022-09-07T22:11:06.386Z,13.02
2022-09-07T22:13:34.515Z,12.89
2022-09-07T22:16:03.615Z,12.93
2022-09-07T22:18:31.200Z,12.95
2022-09-07T22:21:02.467Z,12.48
2022-09-07T22:23:31.175Z,12.37
2022-09-07T22:25:58.687Z,12.44
2022-09-07T22:28:28.504Z,12.35
2022-09-07T22:30:56.314Z,12.50
2022-09-07T22:33:23.857Z,12.68
2022-09-07T22:35:51.865Z,12.83
2022-09-07T22:38:19.563Z,12.79
2022-09-07T22:40:47.416Z,12.72
2022-09-07T22:43:15.044Z,13.26
2022-09-07T22:45:42.439Z,13.35
2022-09-07T22:48:09.920Z,13.12
2022-09-07T22:50:37.626Z,12.53
2022-09-07T22:53:05.295Z,12.42
2022-09-07T22:55:32.736Z,12.46
2022-09-07T22:58:00.232Z,12.41
2022-09-07T23:00:27.552Z,12.51
2022-09-07T23:02:55.022Z,13.26
2022-09-07T23:05:22.375Z,13.07
2022-09-07T23:07:50.277Z,12.96
2022-09-07T23:10:17.882Z,13.39
2022-09-07T23:12:47.811Z,13.19
2022-09-07T23:15:15.316Z,13.55
2022-09-07T23:17:42.705Z,13.65
2022-09-07T23:20:10.309Z,13.69
2022-09-07T23:22:37.639Z,13.89
2022-09-07T23:25:05.347Z,13.93
2022-09-07T23:27:33.694Z,14.05
2022-09-07T23:30:01.234Z,14.04
2022-09-07T23:32:28.612Z,14.08
2022-09-07T23:34:56.803Z,14.08
2022-09-07T23:37:24.332Z,13.90
2022-09-07T23:39:52.335Z,13.89
2022-09-07T23:42:19.785Z,13.86
2022-09-07T23:44:48.667Z,14.03
2022-09-07T23:47:16.228Z,13.90
2022-09-07T23:49:43.745Z,13.84
2022-09-07T23:52:11.259Z,13.84
2022-09-07T23:54:39.159Z,13.75
2022-09-07T23:57:06.590Z,13.68
2022-09-07T23:59:34.082Z,13.67
